sensor_id;sensor_type;location;lat;lon;timestamp;pressure;altitude;pressure_sealevel;temperature;humidity
11672;BME280;5892;43.412;24.612;2023-06-22T00:01:16;100182.88;;;21.96;100.00
11672;BME280;5892;43.412;24.612;2023-06-22T00:03:43;100180.53;;;21.98;100.00
11672;BME280;5892;43.412;24.612;2023-06-22T00:06:12;100206.09;;;22.14;100.00
11672;BME280;5892;43.412;24.612;2023-06-22T00:08:39;100210.41;;;22.01;100.00
11672;BME280;5892;43.412;24.612;2023-06-22T00:11:06;100200.50;;;22.07;100.00
11672;BME280;5892;43.412;24.612;2023-06-22T00:13:33;100206.44;;;22.06;100.00
11672;BME280;5892;43.412;24.612;2023-06-22T00:16:00;100211.25;;;22.09;100.00
11672;BME280;5892;43.412;24.612;2023-06-22T00:18:27;100205.94;;;21.93;100.00
11672;BME280;5892;43.412;24.612;2023-06-22T00:20:56;100189.16;;;21.82;100.00
11672;BME280;5892;43.412;24.612;2023-06-22T00:23:26;100205.22;;;22.00;100.00
11672;BME280;5892;43.412;24.612;2023-06-22T00:25:53;100170.03;;;21.84;100.00
11672;BME280;5892;43.412;24.612;2023-06-22T00:28:22;100185.28;;;21.98;100.00
11672;BME280;5892;43.412;24.612;2023-06-22T00:30:49;100170.41;;;21.83;100.00
11672;BME280;5892;43.412;24.612;2023-06-22T00:33:16;100198.44;;;21.97;100.00
11672;BME280;5892;43.412;24.612;2023-06-22T00:35:43;100169.91;;;21.63;100.00
11672;BME280;5892;43.412;24.612;2023-06-22T00:38:11;100178.31;;;21.67;100.00
11672;BME280;5892;43.412;24.612;2023-06-22T00:40:39;100174.66;;;21.59;100.00
11672;BME280;5892;43.412;24.612;2023-06-22T00:43:06;100189.03;;;21.65;100.00
11672;BME280;5892;43.412;24.612;2023-06-22T00:45:33;100196.16;;;21.62;100.00
11672;BME280;5892;43.412;24.612;2023-06-22T00:48:00;100165.84;;;21.53;100.00
11672;BME280;5892;43.412;24.612;2023-06-22T00:50:31;100178.63;;;21.62;100.00
11672;BME280;5892;43.412;24.612;2023-06-22T00:53:00;100177.44;;;21.59;100.00
11672;BME280;5892;43.412;24.612;2023-06-22T00:55:35;100180.59;;;21.54;100.00
11672;BME280;5892;43.412;24.612;2023-06-22T00:58:06;100171.81;;;21.52;100.00
11672;BME280;5892;43.412;24.612;2023-06-22T01:00:36;100196.97;;;21.63;100.00
11672;BME280;5892;43.412;24.612;2023-06-22T01:03:04;100185.00;;;21.59;100.00
11672;BME280;5892;43.412;24.612;2023-06-22T01:05:34;100161.06;;;21.50;100.00
11672;BME280;5892;43.412;24.612;2023-06-22T01:08:12;100190.66;;;21.69;100.00
11672;BME280;5892;43.412;24.612;2023-06-22T01:10:44;100163.44;;;21.52;100.00
11672;BME280;5892;43.412;24.612;2023-06-22T01:13:25;100205.03;;;21.75;100.00
11672;BME280;5892;43.412;24.612;2023-06-22T01:15:57;100196.53;;;21.57;100.00
11672;BME280;5892;43.412;24.612;2023-06-22T01:18:27;100214.22;;;21.24;100.00
11672;BME280;5892;43.412;24.612;2023-06-22T01:20:56;100206.88;;;21.09;100.00
11672;BME280;5892;43.412;24.612;2023-06-22T01:23:29;100185.22;;;20.92;100.00
11672;BME280;5892;43.412;24.612;2023-06-22T01:26:06;100201.03;;;20.84;100.00
11672;BME280;5892;43.412;24.612;2023-06-22T01:28:43;100218.59;;;20.88;100.00
11672;BME280;5892;43.412;24.612;2023-06-22T01:31:13;100209.09;;;20.93;100.00
11672;BME280;5892;43.412;24.612;2023-06-22T01:33:42;100213.91;;;20.96;100.00
11672;BME280;5892;43.412;24.612;2023-06-22T01:36:10;100209.84;;;20.90;100.00
11672;BME280;5892;43.412;24.612;2023-06-22T01:38:42;100211.94;;;21.00;100.00
11672;BME280;5892;43.412;24.612;2023-06-22T01:41:10;100203.59;;;21.00;100.00
11672;BME280;5892;43.412;24.612;2023-06-22T01:43:39;100221.09;;;21.00;100.00
11672;BME280;5892;43.412;24.612;2023-06-22T01:46:08;100212.00;;;21.03;100.00
11672;BME280;5892;43.412;24.612;2023-06-22T01:48:35;100220.41;;;21.10;100.00
11672;BME280;5892;43.412;24.612;2023-06-22T01:51:02;100214.34;;;21.01;100.00
11672;BME280;5892;43.412;24.612;2023-06-22T01:53:29;100216.34;;;21.04;100.00
11672;BME280;5892;43.412;24.612;2023-06-22T01:55:56;100218.41;;;21.07;100.00
11672;BME280;5892;43.412;24.612;2023-06-22T01:58:27;100227.47;;;21.01;100.00
11672;BME280;5892;43.412;24.612;2023-06-22T02:00:58;100221.53;;;21.02;100.00
11672;BME280;5892;43.412;24.612;2023-06-22T02:03:34;100230.59;;;20.92;100.00
11672;BME280;5892;43.412;24.612;2023-06-22T02:06:06;100225.75;;;20.89;100.00
11672;BME280;5892;43.412;24.612;2023-06-22T02:08:38;100211.69;;;20.75;100.00
11672;BME280;5892;43.412;24.612;2023-06-22T02:11:07;100208.00;;;20.67;100.00
11672;BME280;5892;43.412;24.612;2023-06-22T02:13:36;100224.91;;;20.82;100.00
11672;BME280;5892;43.412;24.612;2023-06-22T02:16:08;100219.69;;;20.80;100.00
11672;BME280;5892;43.412;24.612;2023-06-22T02:18:38;100221.69;;;20.80;100.00
11672;BME280;5892;43.412;24.612;2023-06-22T02:21:08;100228.41;;;20.75;100.00
11672;BME280;5892;43.412;24.612;2023-06-22T02:23:34;100218.41;;;20.70;100.00
11672;BME280;5892;43.412;24.612;2023-06-22T02:26:03;100224.91;;;20.82;100.00
11672;BME280;5892;43.412;24.612;2023-06-22T02:28:30;100218.50;;;20.78;100.00
11672;BME280;5892;43.412;24.612;2023-06-22T02:30:57;100213.31;;;20.80;100.00
11672;BME280;5892;43.412;24.612;2023-06-22T02:33:25;100232.81;;;20.80;100.00
11672;BME280;5892;43.412;24.612;2023-06-22T02:35:54;100217.56;;;20.66;100.00
11672;BME280;5892;43.412;24.612;2023-06-22T02:38:21;100219.91;;;20.64;100.00
11672;BME280;5892;43.412;24.612;2023-06-22T02:40:51;100231.09;;;20.68;100.00
11672;BME280;5892;43.412;24.612;2023-06-22T02:43:17;100200.75;;;20.56;100.00
11672;BME280;5892;43.412;24.612;2023-06-22T02:45:46;100226.84;;;20.78;100.00
11672;BME280;5892;43.412;24.612;2023-06-22T02:48:13;100228.84;;;20.81;100.00
11672;BME280;5892;43.412;24.612;2023-06-22T02:50:40;100217.56;;;20.66;100.00
11672;BME280;5892;43.412;24.612;2023-06-22T02:53:08;100235.13;;;20.70;100.00
11672;BME280;5892;43.412;24.612;2023-06-22T02:55:35;100236.31;;;20.73;100.00
11672;BME280;5892;43.412;24.612;2023-06-22T02:58:02;100240.09;;;20.88;100.00
11672;BME280;5892;43.412;24.612;2023-06-22T03:00:30;100202.97;;;20.77;100.00
11672;BME280;5892;43.412;24.612;2023-06-22T03:03:00;100234.88;;;21.20;100.00
11672;BME280;5892;43.412;24.612;2023-06-22T03:05:27;100228.13;;;21.72;100.00
11672;BME280;5892;43.412;24.612;2023-06-22T03:07:54;100232.41;;;22.13;100.00
11672;BME280;5892;43.412;24.612;2023-06-22T03:10:22;100247.72;;;22.44;100.00
11672;BME280;5892;43.412;24.612;2023-06-22T03:12:49;100252.19;;;22.63;100.00
11672;BME280;5892;43.412;24.612;2023-06-22T03:15:16;100252.72;;;23.00;98.45
11672;BME280;5892;43.412;24.612;2023-06-22T03:17:44;100257.59;;;23.46;94.72
11672;BME280;5892;43.412;24.612;2023-06-22T03:20:11;100258.81;;;23.84;92.35
11672;BME280;5892;43.412;24.612;2023-06-22T03:22:39;100252.34;;;24.15;89.37
11672;BME280;5892;43.412;24.612;2023-06-22T03:25:07;100251.81;;;24.66;85.02
11672;BME280;5892;43.412;24.612;2023-06-22T03:27:42;100263.53;;;25.23;80.80
11672;BME280;5892;43.412;24.612;2023-06-22T03:30:13;100249.69;;;25.54;77.50
11672;BME280;5892;43.412;24.612;2023-06-22T03:32:40;100219.41;;;25.31;76.89
11672;BME280;5892;43.412;24.612;2023-06-22T03:35:10;100274.56;;;26.00;75.07
11672;BME280;5892;43.412;24.612;2023-06-22T03:37:39;100276.78;;;26.56;73.33
11672;BME280;5892;43.412;24.612;2023-06-22T03:40:07;100252.91;;;25.52;74.78
11672;BME280;5892;43.412;24.612;2023-06-22T03:42:35;100277.00;;;25.46;77.18
11672;BME280;5892;43.412;24.612;2023-06-22T03:45:04;100271.78;;;24.72;80.50
11672;BME280;5892;43.412;24.612;2023-06-22T03:47:33;100276.56;;;24.82;81.74
11672;BME280;5892;43.412;24.612;2023-06-22T03:50:00;100271.84;;;24.65;81.77
11672;BME280;5892;43.412;24.612;2023-06-22T03:52:29;100280.41;;;23.83;87.58
11672;BME280;5892;43.412;24.612;2023-06-22T03:54:56;100276.00;;;23.75;88.74
11672;BME280;5892;43.412;24.612;2023-06-22T03:57:23;100281.19;;;23.77;88.61
11672;BME280;5892;43.412;24.612;2023-06-22T03:59:50;100244.78;;;23.45;90.37
11672;BME280;5892;43.412;24.612;2023-06-22T04:02:18;100276.38;;;24.05;88.40
11672;BME280;5892;43.412;24.612;2023-06-22T04:04:46;100279.09;;;24.48;84.76
11672;BME280;5892;43.412;24.612;2023-06-22T04:07:13;100275.50;;;24.55;84.31
11672;BME280;5892;43.412;24.612;2023-06-22T04:09:40;100257.97;;;24.26;85.42
11672;BME280;5892;43.412;24.612;2023-06-22T04:12:07;100263.59;;;23.90;87.45
11672;BME280;5892;43.412;24.612;2023-06-22T04:14:35;100230.03;;;23.80;86.82
11672;BME280;5892;43.412;24.612;2023-06-22T04:17:02;100270.34;;;24.14;86.45
11672;BME280;5892;43.412;24.612;2023-06-22T04:19:33;100280.97;;;24.83;83.58
11672;BME280;5892;43.412;24.612;2023-06-22T04:22:03;100273.16;;;25.78;77.63
11672;BME280;5892;43.412;24.612;2023-06-22T04:24:33;100271.41;;;26.35;76.06
11672;BME280;5892;43.412;24.612;2023-06-22T04:27:00;100259.06;;;26.60;73.23
11672;BME280;5892;43.412;24.612;2023-06-22T04:29:29;100274.03;;;27.14;70.77
11672;BME280;5892;43.412;24.612;2023-06-22T04:31:56;100272.38;;;27.43;68.92
11672;BME280;5892;43.412;24.612;2023-06-22T04:34:33;100283.91;;;27.79;66.56
11672;BME280;5892;43.412;24.612;2023-06-22T04:37:01;100283.41;;;28.07;65.62
11672;BME280;5892;43.412;24.612;2023-06-22T04:39:28;100287.38;;;28.33;64.23
11672;BME280;5892;43.412;24.612;2023-06-22T04:41:55;100287.66;;;28.39;63.45
11672;BME280;5892;43.412;24.612;2023-06-22T04:44:26;100290.44;;;28.82;61.56
11672;BME280;5892;43.412;24.612;2023-06-22T04:46:55;100270.47;;;28.53;62.12
11672;BME280;5892;43.412;24.612;2023-06-22T04:49:26;100296.19;;;28.55;62.39
11672;BME280;5892;43.412;24.612;2023-06-22T04:51:59;100306.78;;;27.81;64.84
11672;BME280;5892;43.412;24.612;2023-06-22T04:54:27;100298.41;;;27.24;66.50
11672;BME280;5892;43.412;24.612;2023-06-22T04:56:54;100312.00;;;27.29;67.54
11672;BME280;5892;43.412;24.612;2023-06-22T04:59:23;100285.41;;;27.33;66.99
11672;BME280;5892;43.412;24.612;2023-06-22T05:01:53;100315.00;;;27.95;65.05
11672;BME280;5892;43.412;24.612;2023-06-22T05:04:22;100312.38;;;28.31;63.45
11672;BME280;5892;43.412;24.612;2023-06-22T05:06:50;100290.25;;;28.69;61.72
11672;BME280;5892;43.412;24.612;2023-06-22T05:09:18;100319.94;;;28.97;60.55
11672;BME280;5892;43.412;24.612;2023-06-22T05:11:45;100319.13;;;28.57;61.63
11672;BME280;5892;43.412;24.612;2023-06-22T05:14:13;100332.25;;;28.44;62.83
11672;BME280;5892;43.412;24.612;2023-06-22T05:16:41;100327.00;;;28.46;64.19
11672;BME280;5892;43.412;24.612;2023-06-22T05:19:09;100320.16;;;28.23;64.39
11672;BME280;5892;43.412;24.612;2023-06-22T05:21:37;100328.66;;;27.97;65.08
11672;BME280;5892;43.412;24.612;2023-06-22T05:24:06;100337.09;;;27.73;66.62
11672;BME280;5892;43.412;24.612;2023-06-22T05:26:37;100336.19;;;27.53;68.05
11672;BME280;5892;43.412;24.612;2023-06-22T05:29:04;100334.72;;;27.15;69.48
11672;BME280;5892;43.412;24.612;2023-06-22T05:31:31;100298.94;;;26.85;70.66
11672;BME280;5892;43.412;24.612;2023-06-22T05:33:59;100322.09;;;27.26;68.80
11672;BME280;5892;43.412;24.612;2023-06-22T05:36:26;100318.13;;;26.93;69.99
11672;BME280;5892;43.412;24.612;2023-06-22T05:38:55;100334.66;;;26.88;71.75
11672;BME280;5892;43.412;24.612;2023-06-22T05:41:22;100334.66;;;27.18;70.73
11672;BME280;5892;43.412;24.612;2023-06-22T05:43:51;100302.78;;;26.98;71.39
11672;BME280;5892;43.412;24.612;2023-06-22T05:46:22;100321.94;;;27.07;69.87
11672;BME280;5892;43.412;24.612;2023-06-22T05:48:50;100345.53;;;27.47;69.14
11672;BME280;5892;43.412;24.612;2023-06-22T05:51:17;100355.56;;;27.17;70.77
11672;BME280;5892;43.412;24.612;2023-06-22T05:53:44;100339.75;;;27.27;70.62
11672;BME280;5892;43.412;24.612;2023-06-22T05:56:16;100349.38;;;27.29;69.72
11672;BME280;5892;43.412;24.612;2023-06-22T05:58:43;100331.78;;;26.95;70.29
11672;BME280;5892;43.412;24.612;2023-06-22T06:01:12;100328.94;;;27.25;69.65
11672;BME280;5892;43.412;24.612;2023-06-22T06:03:43;100334.38;;;27.66;69.15
11672;BME280;5892;43.412;24.612;2023-06-22T06:06:10;100341.06;;;28.26;65.90
11672;BME280;5892;43.412;24.612;2023-06-22T06:08:38;100343.00;;;28.52;65.25
11672;BME280;5892;43.412;24.612;2023-06-22T06:11:05;100333.38;;;28.89;63.75
11672;BME280;5892;43.412;24.612;2023-06-22T06:13:32;100327.06;;;29.21;61.14
11672;BME280;5892;43.412;24.612;2023-06-22T06:15:59;100339.16;;;29.22;61.39
11672;BME280;5892;43.412;24.612;2023-06-22T06:18:27;100350.72;;;29.63;60.72
11672;BME280;5892;43.412;24.612;2023-06-22T06:20:54;100351.13;;;29.98;59.68
11672;BME280;5892;43.412;24.612;2023-06-22T06:23:22;100323.13;;;30.03;60.44
11672;BME280;5892;43.412;24.612;2023-06-22T06:25:49;100346.94;;;30.35;58.52
11672;BME280;5892;43.412;24.612;2023-06-22T06:28:16;100327.78;;;30.26;57.52
11672;BME280;5892;43.412;24.612;2023-06-22T06:30:43;100347.53;;;30.42;57.30
11672;BME280;5892;43.412;24.612;2023-06-22T06:33:14;100343.03;;;30.45;57.01
11672;BME280;5892;43.412;24.612;2023-06-22T06:35:43;100329.19;;;30.50;56.39
11672;BME280;5892;43.412;24.612;2023-06-22T06:38:11;100342.56;;;30.46;56.76
11672;BME280;5892;43.412;24.612;2023-06-22T06:40:43;100322.31;;;30.64;56.10
11672;BME280;5892;43.412;24.612;2023-06-22T06:43:14;100324.97;;;30.84;55.15
11672;BME280;5892;43.412;24.612;2023-06-22T06:45:41;100321.38;;;30.54;54.68
11672;BME280;5892;43.412;24.612;2023-06-22T06:48:08;100325.47;;;30.21;56.32
11672;BME280;5892;43.412;24.612;2023-06-22T06:50:36;100312.53;;;30.52;56.24
11672;BME280;5892;43.412;24.612;2023-06-22T06:53:06;100333.53;;;30.67;55.55
11672;BME280;5892;43.412;24.612;2023-06-22T06:55:33;100336.06;;;30.49;56.17
11672;BME280;5892;43.412;24.612;2023-06-22T06:58:01;100331.34;;;30.88;55.54
11672;BME280;5892;43.412;24.612;2023-06-22T07:00:29;100300.06;;;31.07;54.00
11672;BME280;5892;43.412;24.612;2023-06-22T07:02:57;100323.84;;;31.35;55.86
11672;BME280;5892;43.412;24.612;2023-06-22T07:05:24;100325.13;;;30.93;54.96
11672;BME280;5892;43.412;24.612;2023-06-22T07:07:53;100322.25;;;31.22;55.17
11672;BME280;5892;43.412;24.612;2023-06-22T07:10:21;100328.28;;;30.95;55.18
11672;BME280;5892;43.412;24.612;2023-06-22T07:12:50;100309.09;;;31.15;53.60
11672;BME280;5892;43.412;24.612;2023-06-22T07:15:19;100305.38;;;31.18;53.43
11672;BME280;5892;43.412;24.612;2023-06-22T07:17:49;100312.50;;;31.35;54.20
11672;BME280;5892;43.412;24.612;2023-06-22T07:20:16;100308.56;;;31.45;51.36
11672;BME280;5892;43.412;24.612;2023-06-22T07:22:45;100296.88;;;31.05;52.69
11672;BME280;5892;43.412;24.612;2023-06-22T07:25:14;100311.59;;;31.13;51.93
11672;BME280;5892;43.412;24.612;2023-06-22T07:27:57;100308.34;;;31.40;52.26
11672;BME280;5892;43.412;24.612;2023-06-22T07:30:30;100296.91;;;31.69;50.71
11672;BME280;5892;43.412;24.612;2023-06-22T07:32:58;100324.75;;;31.95;51.16
11672;BME280;5892;43.412;24.612;2023-06-22T07:35:29;100323.69;;;32.27;50.88
11672;BME280;5892;43.412;24.612;2023-06-22T07:37:57;100329.91;;;32.10;51.99
11672;BME280;5892;43.412;24.612;2023-06-22T07:40:26;100320.56;;;31.49;52.63
11672;BME280;5892;43.412;24.612;2023-06-22T07:42:55;100326.91;;;31.91;52.34
11672;BME280;5892;43.412;24.612;2023-06-22T07:45:22;100326.34;;;31.84;52.13
11672;BME280;5892;43.412;24.612;2023-06-22T07:47:49;100338.34;;;32.13;51.14
11672;BME280;5892;43.412;24.612;2023-06-22T07:50:16;100321.88;;;32.21;52.06
11672;BME280;5892;43.412;24.612;2023-06-22T07:52:43;100327.84;;;32.57;50.95
11672;BME280;5892;43.412;24.612;2023-06-22T07:55:10;100293.06;;;32.10;51.76
11672;BME280;5892;43.412;24.612;2023-06-22T07:57:37;100332.31;;;32.46;51.13
11672;BME280;5892;43.412;24.612;2023-06-22T08:00:06;100317.28;;;31.89;53.44
11672;BME280;5892;43.412;24.612;2023-06-22T08:02:39;100326.31;;;32.22;52.34
11672;BME280;5892;43.412;24.612;2023-06-22T08:05:07;100313.59;;;32.48;52.33
11672;BME280;5892;43.412;24.612;2023-06-22T08:07:35;100294.34;;;32.43;50.87
11672;BME280;5892;43.412;24.612;2023-06-22T08:10:03;100315.56;;;32.73;50.56
11672;BME280;5892;43.412;24.612;2023-06-22T08:12:33;100329.09;;;32.56;50.78
11672;BME280;5892;43.412;24.612;2023-06-22T08:15:00;100326.47;;;32.62;50.55
11672;BME280;5892;43.412;24.612;2023-06-22T08:17:28;100320.59;;;32.56;52.15
11672;BME280;5892;43.412;24.612;2023-06-22T08:19:57;100311.09;;;32.28;53.95
11672;BME280;5892;43.412;24.612;2023-06-22T08:22:24;100312.75;;;32.60;52.92
11672;BME280;5892;43.412;24.612;2023-06-22T08:24:51;100313.31;;;32.68;52.08
11672;BME280;5892;43.412;24.612;2023-06-22T08:27:19;100308.28;;;32.72;51.57
11672;BME280;5892;43.412;24.612;2023-06-22T08:29:47;100309.69;;;32.67;51.69
11672;BME280;5892;43.412;24.612;2023-06-22T08:32:15;100307.78;;;32.52;51.48
11672;BME280;5892;43.412;24.612;2023-06-22T08:34:43;100299.66;;;32.97;50.95
11672;BME280;5892;43.412;24.612;2023-06-22T08:37:10;100300.59;;;33.03;50.79
11672;BME280;5892;43.412;24.612;2023-06-22T08:39:37;100292.69;;;33.20;51.74
11672;BME280;5892;43.412;24.612;2023-06-22T08:42:07;100297.75;;;33.25;51.51
11672;BME280;5892;43.412;24.612;2023-06-22T08:44:33;100305.00;;;33.26;49.72
11672;BME280;5892;43.412;24.612;2023-06-22T08:47:00;100299.19;;;33.30;50.79
11672;BME280;5892;43.412;24.612;2023-06-22T08:49:27;100303.31;;;33.29;49.88
11672;BME280;5892;43.412;24.612;2023-06-22T08:51:55;100309.78;;;33.07;49.04
11672;BME280;5892;43.412;24.612;2023-06-22T08:54:23;100301.75;;;33.37;49.67
11672;BME280;5892;43.412;24.612;2023-06-22T08:56:50;100238.06;;;33.16;48.00
11672;BME280;5892;43.412;24.612;2023-06-22T08:59:17;100318.47;;;33.35;48.37
11672;BME280;5892;43.412;24.612;2023-06-22T09:01:43;100315.13;;;33.27;47.17
11672;BME280;5892;43.412;24.612;2023-06-22T09:04:14;100305.06;;;33.35;47.09
11672;BME280;5892;43.412;24.612;2023-06-22T09:06:43;100305.94;;;32.92;47.31
11672;BME280;5892;43.412;24.612;2023-06-22T09:09:13;100290.78;;;33.17;47.16
11672;BME280;5892;43.412;24.612;2023-06-22T09:11:41;100269.91;;;33.11;48.09
11672;BME280;5892;43.412;24.612;2023-06-22T09:14:10;100280.25;;;33.27;46.97
11672;BME280;5892;43.412;24.612;2023-06-22T09:16:37;100288.38;;;33.46;46.22
11672;BME280;5892;43.412;24.612;2023-06-22T09:19:04;100296.47;;;33.57;44.54
11672;BME280;5892;43.412;24.612;2023-06-22T09:21:35;100292.13;;;33.83;44.01
11672;BME280;5892;43.412;24.612;2023-06-22T09:24:03;100292.19;;;34.11;43.41
11672;BME280;5892;43.412;24.612;2023-06-22T09:26:33;100286.50;;;34.11;44.84
11672;BME280;5892;43.412;24.612;2023-06-22T09:29:00;100293.72;;;33.84;42.93
11672;BME280;5892;43.412;24.612;2023-06-22T09:31:27;100237.50;;;33.30;42.56
11672;BME280;5892;43.412;24.612;2023-06-22T09:33:55;100236.13;;;33.44;43.02
11672;BME280;5892;43.412;24.612;2023-06-22T09:36:22;100289.34;;;34.01;41.90
11672;BME280;5892;43.412;24.612;2023-06-22T09:38:49;100293.56;;;33.97;41.84
11672;BME280;5892;43.412;24.612;2023-06-22T09:41:20;100292.81;;;34.06;42.45
11672;BME280;5892;43.412;24.612;2023-06-22T09:43:50;100281.59;;;34.11;41.68
11672;BME280;5892;43.412;24.612;2023-06-22T09:46:19;100294.53;;;33.94;41.20
11672;BME280;5892;43.412;24.612;2023-06-22T09:48:47;100288.03;;;33.84;40.37
11672;BME280;5892;43.412;24.612;2023-06-22T09:51:15;100288.03;;;33.93;40.10
11672;BME280;5892;43.412;24.612;2023-06-22T09:53:42;100289.50;;;34.16;39.12
11672;BME280;5892;43.412;24.612;2023-06-22T09:56:09;100288.09;;;34.39;38.41
11672;BME280;5892;43.412;24.612;2023-06-22T09:58:40;100280.19;;;34.34;37.92
11672;BME280;5892;43.412;24.612;2023-06-22T10:01:10;100259.94;;;33.95;39.31
11672;BME280;5892;43.412;24.612;2023-06-22T10:03:37;100288.09;;;34.39;40.51
11672;BME280;5892;43.412;24.612;2023-06-22T10:06:05;100285.25;;;34.30;38.59
11672;BME280;5892;43.412;24.612;2023-06-22T10:08:32;100282.59;;;34.54;39.18
11672;BME280;5892;43.412;24.612;2023-06-22T10:11:00;100281.16;;;33.63;38.66
11672;BME280;5892;43.412;24.612;2023-06-22T10:13:27;100274.69;;;33.63;38.22
11672;BME280;5892;43.412;24.612;2023-06-22T10:15:55;100273.44;;;34.22;37.95
11672;BME280;5892;43.412;24.612;2023-06-22T10:18:23;100281.13;;;34.67;37.29
11672;BME280;5892;43.412;24.612;2023-06-22T10:20:52;100279.47;;;35.03;37.11
11672;BME280;5892;43.412;24.612;2023-06-22T10:23:20;100269.72;;;34.95;37.57
11672;BME280;5892;43.412;24.612;2023-06-22T10:25:47;100280.63;;;34.96;36.95
11672;BME280;5892;43.412;24.612;2023-06-22T10:28:14;100280.13;;;34.98;37.86
11672;BME280;5892;43.412;24.612;2023-06-22T10:30:42;100270.00;;;35.06;37.73
11672;BME280;5892;43.412;24.612;2023-06-22T10:33:13;100264.91;;;35.19;37.56
11672;BME280;5892;43.412;24.612;2023-06-22T10:35:43;100260.75;;;35.29;37.27
11672;BME280;5892;43.412;24.612;2023-06-22T10:38:10;100264.44;;;35.20;38.21
11672;BME280;5892;43.412;24.612;2023-06-22T10:40:36;100255.38;;;35.31;37.77
11672;BME280;5892;43.412;24.612;2023-06-22T10:43:05;100254.50;;;34.98;35.98
11672;BME280;5892;43.412;24.612;2023-06-22T10:45:33;100254.44;;;35.16;37.87
11672;BME280;5892;43.412;24.612;2023-06-22T10:48:00;100257.09;;;34.77;38.49
11672;BME280;5892;43.412;24.612;2023-06-22T10:50:28;100249.03;;;34.76;38.45
11672;BME280;5892;43.412;24.612;2023-06-22T10:52:57;100250.56;;;34.95;37.64
11672;BME280;5892;43.412;24.612;2023-06-22T10:55:24;100235.50;;;35.04;37.23
11672;BME280;5892;43.412;24.612;2023-06-22T10:57:51;100257.22;;;34.92;36.91
11672;BME280;5892;43.412;24.612;2023-06-22T11:00:20;100250.72;;;34.92;37.21
11672;BME280;5892;43.412;24.612;2023-06-22T11:02:48;100251.00;;;35.03;35.88
11672;BME280;5892;43.412;24.612;2023-06-22T11:05:16;100248.59;;;34.41;37.51
11672;BME280;5892;43.412;24.612;2023-06-22T11:07:43;100251.09;;;34.84;38.13
11672;BME280;5892;43.412;24.612;2023-06-22T11:10:13;100244.78;;;34.71;37.85
11672;BME280;5892;43.412;24.612;2023-06-22T11:12:40;100249.16;;;34.91;36.76
11672;BME280;5892;43.412;24.612;2023-06-22T11:15:08;100259.31;;;34.73;37.29
11672;BME280;5892;43.412;24.612;2023-06-22T11:17:35;100252.53;;;34.71;37.77
11672;BME280;5892;43.412;24.612;2023-06-22T11:20:03;100243.25;;;35.03;37.66
11672;BME280;5892;43.412;24.612;2023-06-22T11:22:38;100253.91;;;34.94;37.50
11672;BME280;5892;43.412;24.612;2023-06-22T11:25:06;100225.59;;;35.32;36.93
11672;BME280;5892;43.412;24.612;2023-06-22T11:27:38;100230.97;;;35.63;36.68
11672;BME280;5892;43.412;24.612;2023-06-22T11:30:06;100252.59;;;35.79;34.22
11672;BME280;5892;43.412;24.612;2023-06-22T11:32:35;100228.19;;;35.21;34.80
11672;BME280;5892;43.412;24.612;2023-06-22T11:35:02;100237.28;;;35.34;34.62
11672;BME280;5892;43.412;24.612;2023-06-22T11:37:29;100236.41;;;35.52;34.09
11672;BME280;5892;43.412;24.612;2023-06-22T11:39:55;100233.78;;;35.39;34.09
11672;BME280;5892;43.412;24.612;2023-06-22T11:42:23;100240.66;;;35.56;33.58
11672;BME280;5892;43.412;24.612;2023-06-22T11:44:52;100240.66;;;35.33;34.61
11672;BME280;5892;43.412;24.612;2023-06-22T11:47:20;100227.78;;;35.37;35.89
11672;BME280;5892;43.412;24.612;2023-06-22T11:49:49;100234.69;;;35.45;36.53
11672;BME280;5892;43.412;24.612;2023-06-22T11:52:16;100225.09;;;35.34;35.33
11672;BME280;5892;43.412;24.612;2023-06-22T11:54:43;100195.91;;;35.15;35.84
11672;BME280;5892;43.412;24.612;2023-06-22T11:57:12;100241.63;;;34.51;35.83
11672;BME280;5892;43.412;24.612;2023-06-22T11:59:39;100227.06;;;34.67;36.24
11672;BME280;5892;43.412;24.612;2023-06-22T12:02:08;100233.22;;;35.26;35.26
11672;BME280;5892;43.412;24.612;2023-06-22T12:04:35;100232.38;;;35.35;35.43
11672;BME280;5892;43.412;24.612;2023-06-22T12:07:02;100231.28;;;34.90;36.08
11672;BME280;5892;43.412;24.612;2023-06-22T12:09:30;100230.88;;;34.10;37.26
11672;BME280;5892;43.412;24.612;2023-06-22T12:11:57;100232.69;;;33.67;37.40
11672;BME280;5892;43.412;24.612;2023-06-22T12:14:24;100241.22;;;33.58;37.33
11672;BME280;5892;43.412;24.612;2023-06-22T12:16:52;100221.50;;;33.54;38.36
11672;BME280;5892;43.412;24.612;2023-06-22T12:19:22;100218.84;;;33.20;39.16
11672;BME280;5892;43.412;24.612;2023-06-22T12:21:49;100227.06;;;33.18;39.04
11672;BME280;5892;43.412;24.612;2023-06-22T12:24:16;100227.53;;;33.16;40.38
11672;BME280;5892;43.412;24.612;2023-06-22T12:26:43;100219.50;;;32.93;40.14
11672;BME280;5892;43.412;24.612;2023-06-22T12:29:10;100222.09;;;33.09;39.79
11672;BME280;5892;43.412;24.612;2023-06-22T12:31:37;100220.91;;;33.19;40.15
11672;BME280;5892;43.412;24.612;2023-06-22T12:34:05;100211.81;;;33.34;39.08
11672;BME280;5892;43.412;24.612;2023-06-22T12:36:34;100198.34;;;32.85;39.18
11672;BME280;5892;43.412;24.612;2023-06-22T12:39:00;100184.53;;;33.05;40.54
11672;BME280;5892;43.412;24.612;2023-06-22T12:41:28;100197.38;;;33.77;39.39
11672;BME280;5892;43.412;24.612;2023-06-22T12:43:55;100203.84;;;34.14;40.38
11672;BME280;5892;43.412;24.612;2023-06-22T12:46:22;100198.69;;;34.22;39.11
11672;BME280;5892;43.412;24.612;2023-06-22T12:48:49;100189.66;;;34.32;39.68
11672;BME280;5892;43.412;24.612;2023-06-22T12:51:21;100186.06;;;34.23;38.25
11672;BME280;5892;43.412;24.612;2023-06-22T12:53:50;100175.13;;;33.76;38.82